Time;durP1;ratioP1;P1;durP2;ratioP2;P2;SDS_P1;SDS_P2;PMS_P1;PMS_P2;Temp;Humidity;BMP_temperature;BMP_pressure;BME280_temperature;BME280_humidity;BME280_pressure;Samples;Min_cycle;Max_cycle;Signal;HPM_P1;HPM_P2
2021/06/07 00:00:26;;;;;;;11.75;5.75;;;;;;;;;;4956778;28;20038;-60
2021/06/07 00:02:52;;;;;;;14.13;5.47;;;;;;;;;;4953508;28;20038;-59
2021/06/07 00:05:17;;;;;;;12.68;6.05;;;;;;;;;;4958371;28;20040;-58
2021/06/07 00:07:45;;;;;;;10.82;6.32;;;;;;;;;;4976643;28;20026;-59
2021/06/07 00:10:15;;;;;;;13.63;5.65;;;;;;;;;;4977120;28;20040;-59
2021/06/07 00:12:43;;;;;;;15.73;6.07;;;;;;;;;;4942518;28;20049;-58
2021/06/07 00:15:11;;;;;;;10.88;5.43;;;;;;;;;;4974337;28;20038;-58
2021/06/07 00:17:41;;;;;;;20.08;6.10;;;;;;;;;;4975633;28;20038;-60
2021/06/07 00:20:14;;;;;;;17.25;6.25;;;;;;;;;;4956860;28;20034;-60
2021/06/07 00:22:42;;;;;;;;;;;;;;;;;;4975090;28;20030;-59
2021/06/07 00:25:10;;;;;;;17.00;5.60;;;;;;;;;;4968738;28;19917;-60
2021/06/07 00:27:38;;;;;;;10.52;5.13;;;;;;;;;;4976792;28;20045;-59
2021/06/07 00:30:07;;;;;;;14.82;5.72;;;;;;;;;;4975609;28;20057;-59
2021/06/07 00:32:34;;;;;;;10.10;5.43;;;;;;;;;;4976995;28;20034;-59
2021/06/07 00:35:02;;;;;;;13.15;5.35;;;;;;;;;;4940939;28;20081;-60
2021/06/07 00:37:32;;;;;;;17.80;5.57;;;;;;;;;;4976214;28;20038;-59
2021/06/07 00:40:00;;;;;;;14.40;5.93;;;;;;;;;;4976545;28;20042;-60
2021/06/07 00:42:29;;;;;;;15.68;6.78;;;;;;;;;;4956655;28;20030;-60
2021/06/07 00:44:54;;;;;;;15.50;6.00;;;;;;;;;;4974683;28;20163;-60
2021/06/07 00:47:20;;;;;;;14.85;6.28;;;;;;;;;;4974819;28;20060;-59
2021/06/07 00:49:48;;;;;;;15.90;5.60;;;;;;;;;;4972848;28;20046;-59
2021/06/07 00:52:14;;;;;;;17.38;5.70;;;;;;;;;;4958252;28;20065;-59
2021/06/07 00:54:42;;;;;;;13.02;5.43;;;;;;;;;;4933989;28;20430;-59
2021/06/07 00:57:12;;;;;;;11.38;6.07;;;;;;;;;;4959900;28;20049;-58
2021/06/07 00:59:38;;;;;;;11.80;5.40;;;;;;;;;;4954319;28;20167;-60
2021/06/07 01:02:03;;;;;;;12.57;5.78;;;;;;;;;;4956662;28;22070;-59
2021/06/07 01:04:29;;;;;;;11.43;5.55;;;;;;;;;;4958590;28;20081;-60
2021/06/07 01:06:54;;;;;;;14.23;6.07;;;;;;;;;;4974899;28;21944;-57
2021/06/07 01:09:24;;;;;;;12.35;5.38;;;;;;;;;;4953405;28;20062;-60
2021/06/07 01:11:50;;;;;;;13.60;5.85;;;;;;;;;;4952499;28;20030;-58
2021/06/07 01:14:17;;;;;;;12.68;5.47;;;;;;;;;;4950635;28;20061;-60
2021/06/07 01:16:43;;;;;;;10.90;5.10;;;;;;;;;;4975643;28;20153;-60
2021/06/07 01:19:13;;;;;;;15.38;5.47;;;;;;;;;;4957586;28;20039;-60
2021/06/07 01:21:39;;;;;;;11.18;5.25;;;;;;;;;;4972751;28;20027;-59
2021/06/07 01:24:05;;;;;;;11.65;5.40;;;;;;;;;;4977292;28;22169;-59
2021/06/07 01:26:33;;;;;;;15.55;5.78;;;;;;;;;;4957328;28;20051;-59
2021/06/07 01:28:58;;;;;;;11.45;5.65;;;;;;;;;;4953651;28;20946;-59
2021/06/07 01:31:26;;;;;;;11.55;5.07;;;;;;;;;;4977177;28;20116;-60
2021/06/07 01:33:56;;;;;;;12.82;5.68;;;;;;;;;;4974869;28;20035;-59
2021/06/07 01:36:22;;;;;;;14.65;5.35;;;;;;;;;;4977611;28;20037;-59
2021/06/07 01:38:47;;;;;;;14.25;5.90;;;;;;;;;;4972467;28;20192;-59
2021/06/07 01:41:16;;;;;;;9.70;4.75;;;;;;;;;;4974899;28;20108;-60
2021/06/07 01:43:42;;;;;;;10.80;5.97;;;;;;;;;;4952772;28;20042;-59
2021/06/07 01:46:09;;;;;;;10.88;4.68;;;;;;;;;;4934184;28;20025;-59
2021/06/07 01:48:36;;;;;;;10.68;5.60;;;;;;;;;;4971681;28;20516;-59
2021/06/07 01:51:03;;;;;;;11.20;5.55;;;;;;;;;;4956627;28;20502;-59
2021/06/07 01:53:32;;;;;;;11.85;5.40;;;;;;;;;;4974162;28;20030;-59
2021/06/07 01:56:02;;;;;;;9.60;4.78;;;;;;;;;;4956051;28;20034;-61
2021/06/07 01:58:31;;;;;;;10.82;5.32;;;;;;;;;;4974289;28;20029;-58
2021/06/07 02:01:04;;;;;;;14.35;5.47;;;;;;;;;;4956526;28;20034;-59
2021/06/07 02:03:37;;;;;;;13.75;5.38;;;;;;;;;;4948916;28;20483;-58
2021/06/07 02:06:06;;;;;;;12.00;6.05;;;;;;;;;;4973367;28;20034;-59
2021/06/07 02:08:32;;;;;;;12.77;5.93;;;;;;;;;;4974155;28;21298;-58
2021/06/07 02:11:00;;;;;;;14.35;6.30;;;;;;;;;;4973605;28;20046;-59
2021/06/07 02:13:28;;;;;;;14.55;5.75;;;;;;;;;;4975996;28;20045;-60
2021/06/07 02:15:59;;;;;;;14.73;6.22;;;;;;;;;;4952953;28;20963;-59
2021/06/07 02:18:28;;;;;;;10.40;5.93;;;;;;;;;;4974697;28;20160;-59
2021/06/07 02:21:03;;;;;;;15.07;5.38;;;;;;;;;;4974162;28;20039;-58
2021/06/07 02:23:28;;;;;;;11.95;5.18;;;;;;;;;;4956833;28;20042;-60
2021/06/07 02:25:53;;;;;;;10.15;5.82;;;;;;;;;;4935770;28;20034;-60
2021/06/07 02:28:22;;;;;;;13.60;6.10;;;;;;;;;;4971500;28;22055;-58
2021/06/07 02:30:47;;;;;;;8.27;5.70;;;;;;;;;;4956308;28;21059;-60
2021/06/07 02:33:13;;;;;;;10.98;5.75;;;;;;;;;;4950158;28;20033;-59
2021/06/07 02:35:39;;;;;;;11.70;5.97;;;;;;;;;;4948907;28;20041;-58
2021/06/07 02:38:04;;;;;;;12.95;5.90;;;;;;;;;;4973617;28;20085;-59
2021/06/07 02:40:31;;;;;;;12.82;6.38;;;;;;;;;;4957657;28;20084;-58
2021/06/07 02:42:57;;;;;;;9.63;5.40;;;;;;;;;;4971467;28;20991;-59
2021/06/07 02:45:22;;;;;;;11.75;5.90;;;;;;;;;;4956013;28;20132;-58
2021/06/07 02:47:51;;;;;;;13.85;6.18;;;;;;;;;;4974853;28;20386;-59
2021/06/07 02:50:18;;;;;;;11.30;5.20;;;;;;;;;;4941295;28;20037;-59
2021/06/07 02:52:47;;;;;;;14.85;6.30;;;;;;;;;;4954220;28;20152;-59
2021/06/07 02:55:19;;;;;;;18.67;7.50;;;;;;;;;;4949156;28;20038;-60
2021/06/07 02:57:48;;;;;;;14.27;6.35;;;;;;;;;;4968144;28;20042;-59
2021/06/07 03:00:17;;;;;;;16.52;6.55;;;;;;;;;;4973813;28;21946;-59
2021/06/07 03:02:43;;;;;;;11.93;5.93;;;;;;;;;;4973966;28;20038;-59
2021/06/07 03:05:09;;;;;;;12.02;6.28;;;;;;;;;;4952273;28;20029;-59
2021/06/07 03:07:34;;;;;;;12.98;6.53;;;;;;;;;;4957358;28;20035;-58
2021/06/07 03:09:59;;;;;;;20.52;6.70;;;;;;;;;;4948560;28;20121;-59
2021/06/07 03:12:25;;;;;;;16.70;6.72;;;;;;;;;;4973976;28;20038;-59
2021/06/07 03:14:51;;;;;;;17.45;6.80;;;;;;;;;;4973424;28;20057;-58
2021/06/07 03:17:19;;;;;;;13.07;6.00;;;;;;;;;;4971527;28;20042;-60
2021/06/07 03:19:46;;;;;;;16.50;6.80;;;;;;;;;;4973164;28;20027;-60
2021/06/07 03:22:14;;;;;;;15.20;6.20;;;;;;;;;;4972737;28;20030;-59
2021/06/07 03:24:39;;;;;;;13.90;6.63;;;;;;;;;;4956095;28;21896;-59
2021/06/07 03:27:05;;;;;;;18.17;7.25;;;;;;;;;;4974498;28;20034;-60
2021/06/07 03:29:31;;;;;;;15.88;7.40;;;;;;;;;;4974066;28;20044;-59
2021/06/07 03:31:59;;;;;;;18.15;6.80;;;;;;;;;;4973601;28;20068;-58
2021/06/07 03:34:25;;;;;;;14.18;6.93;;;;;;;;;;4974649;28;20030;-59
2021/06/07 03:36:53;;;;;;;14.50;6.47;;;;;;;;;;4973778;28;20046;-59
2021/06/07 03:39:20;;;;;;;12.85;6.15;;;;;;;;;;4972982;28;20113;-60
2021/06/07 03:41:46;;;;;;;12.40;5.90;;;;;;;;;;4954414;28;20026;-58
2021/06/07 03:44:11;;;;;;;19.17;7.40;;;;;;;;;;4970476;28;20060;-59
2021/06/07 03:46:36;;;;;;;11.88;5.53;;;;;;;;;;4948593;28;20038;-59
2021/06/07 03:49:04;;;;;;;9.35;5.10;;;;;;;;;;4949870;28;20038;-58
2021/06/07 03:51:34;;;;;;;10.70;5.60;;;;;;;;;;4973723;28;20137;-59
2021/06/07 03:54:02;;;;;;;11.80;5.68;;;;;;;;;;4956253;28;20049;-59
2021/06/07 03:56:27;;;;;;;10.30;5.05;;;;;;;;;;4973857;28;20057;-58
2021/06/07 03:58:56;;;;;;;11.50;5.97;;;;;;;;;;4938001;28;20169;-59
2021/06/07 04:01:29;;;;;;;7.95;5.80;;;;;;;;;;4973409;28;20035;-59
2021/06/07 04:03:57;;;;;;;12.65;5.63;;;;;;;;;;4935545;28;20053;-58
2021/06/07 04:06:23;;;;;;;7.75;5.07;;;;;;;;;;4976539;28;20030;-58
2021/06/07 04:08:50;;;;;;;11.73;5.90;;;;;;;;;;4954718;28;20069;-59
2021/06/07 04:11:17;;;;;;;11.45;4.97;;;;;;;;;;4978018;28;21058;-59
2021/06/07 04:13:45;;;;;;;8.55;4.90;;;;;;;;;;4943128;28;20062;-60
2021/06/07 04:16:11;;;;;;;8.35;5.35;;;;;;;;;;4976738;28;20175;-59
2021/06/07 04:18:39;;;;;;;8.07;5.10;;;;;;;;;;4937608;28;20440;-58
2021/06/07 04:21:06;;;;;;;12.00;5.13;;;;;;;;;;4956276;28;20044;-60
2021/06/07 04:23:34;;;;;;;8.48;5.18;;;;;;;;;;4953672;28;20052;-60
2021/06/07 04:25:59;;;;;;;8.25;4.38;;;;;;;;;;4957900;28;20068;-60
2021/06/07 04:28:27;;;;;;;6.30;4.25;;;;;;;;;;4977560;28;20141;-60
2021/06/07 04:30:55;;;;;;;6.85;3.88;;;;;;;;;;4951001;28;20085;-59
2021/06/07 04:33:21;;;;;;;8.50;4.45;;;;;;;;;;4935765;28;20042;-61
2021/06/07 04:35:48;;;;;;;5.93;3.90;;;;;;;;;;4958055;28;20044;-60
2021/06/07 04:38:14;;;;;;;5.70;4.53;;;;;;;;;;4968035;28;20029;-60
2021/06/07 04:40:40;;;;;;;8.35;4.68;;;;;;;;;;4957790;28;20108;-59
2021/06/07 04:43:10;;;;;;;5.40;3.78;;;;;;;;;;4974316;28;20465;-58
2021/06/07 04:45:38;;;;;;;7.65;3.92;;;;;;;;;;4974403;28;20113;-60
2021/06/07 04:48:04;;;;;;;9.85;3.67;;;;;;;;;;4975139;28;20161;-59
2021/06/07 04:50:31;;;;;;;6.75;4.30;;;;;;;;;;4956477;28;20057;-59
2021/06/07 04:53:00;;;;;;;4.10;3.65;;;;;;;;;;4956512;28;20845;-59
2021/06/07 04:55:28;;;;;;;6.20;3.95;;;;;;;;;;4956241;28;20182;-60
2021/06/07 04:57:57;;;;;;;4.20;2.97;;;;;;;;;;4972850;28;20171;-58
2021/06/07 05:00:25;;;;;;;5.85;2.97;;;;;;;;;;4974339;28;20043;-58
2021/06/07 05:02:54;;;;;;;4.30;3.15;;;;;;;;;;4964523;28;20053;-59
2021/06/07 05:05:25;;;;;;;3.90;3.13;;;;;;;;;;4957540;28;20026;-59
2021/06/07 05:07:51;;;;;;;4.70;2.97;;;;;;;;;;4949312;28;20387;-59
2021/06/07 05:10:16;;;;;;;5.13;3.25;;;;;;;;;;4975908;28;20030;-59
2021/06/07 05:12:45;;;;;;;5.28;3.05;;;;;;;;;;4972938;28;20069;-59
2021/06/07 05:15:19;;;;;;;5.05;3.03;;;;;;;;;;4971883;28;20037;-59
2021/06/07 05:17:46;;;;;;;3.55;2.80;;;;;;;;;;4974551;28;20283;-58
2021/06/07 05:20:17;;;;;;;2.58;2.22;;;;;;;;;;4974525;28;20026;-59
2021/06/07 05:22:42;;;;;;;4.10;2.42;;;;;;;;;;4973718;28;20083;-59
2021/06/07 05:25:09;;;;;;;6.32;2.63;;;;;;;;;;4973474;28;20026;-60
2021/06/07 05:27:34;;;;;;;2.72;2.10;;;;;;;;;;4949807;28;20037;-60
2021/06/07 05:30:05;;;;;;;3.70;2.50;;;;;;;;;;4974680;28;20128;-60
2021/06/07 05:32:33;;;;;;;3.22;2.28;;;;;;;;;;4950968;28;20109;-59
2021/06/07 05:34:59;;;;;;;3.15;1.83;;;;;;;;;;4972762;28;20438;-59
2021/06/07 05:37:24;;;;;;;3.15;2.28;;;;;;;;;;4974521;28;20045;-60
2021/06/07 05:39:52;;;;;;;2.90;2.08;;;;;;;;;;4956590;28;20033;-58
2021/06/07 05:42:20;;;;;;;2.25;1.95;;;;;;;;;;4952336;28;20034;-59
2021/06/07 05:44:48;;;;;;;5.65;2.10;;;;;;;;;;4974878;28;21286;-59
2021/06/07 05:47:16;;;;;;;6.22;2.15;;;;;;;;;;4956078;28;20081;-59
2021/06/07 05:49:44;;;;;;;1.90;1.80;;;;;;;;;;4975011;28;20053;-59
2021/06/07 05:52:10;;;;;;;2.60;1.92;;;;;;;;;;4972011;28;20042;-59
2021/06/07 05:54:39;;;;;;;4.70;2.00;;;;;;;;;;4956120;28;21005;-60
2021/06/07 05:57:07;;;;;;;2.10;1.35;;;;;;;;;;4971833;28;20042;-59
2021/06/07 05:59:36;;;;;;;3.33;1.83;;;;;;;;;;4973412;28;20033;-60
2021/06/07 06:02:06;;;;;;;6.18;1.73;;;;;;;;;;4974054;28;20432;-59
2021/06/07 06:04:37;;;;;;;6.60;1.70;;;;;;;;;;4970638;28;20420;-60
2021/06/07 06:07:04;;;;;;;3.28;1.60;;;;;;;;;;4975413;28;20066;-60
2021/06/07 06:09:30;;;;;;;1.40;1.30;;;;;;;;;;4972714;28;20038;-60
2021/06/07 06:11:58;;;;;;;1.42;1.33;;;;;;;;;;4948183;28;20033;-60
2021/06/07 06:14:27;;;;;;;4.40;1.70;;;;;;;;;;4950364;28;20030;-60
2021/06/07 06:16:53;;;;;;;4.45;1.45;;;;;;;;;;4954670;28;20026;-60
2021/06/07 06:19:23;;;;;;;1.85;1.65;;;;;;;;;;4973300;28;20022;-59
2021/06/07 06:21:48;;;;;;;1.85;1.45;;;;;;;;;;4949885;28;20109;-60
2021/06/07 06:24:18;;;;;;;2.95;1.50;;;;;;;;;;4965968;28;20783;-60
2021/06/07 06:26:46;;;;;;;2.63;1.55;;;;;;;;;;4946507;28;20041;-59
2021/06/07 06:29:14;;;;;;;1.80;1.35;;;;;;;;;;4955321;28;22257;-60
2021/06/07 06:31:39;;;;;;;2.55;1.60;;;;;;;;;;4955593;28;20042;-60
2021/06/07 06:34:07;;;;;;;2.35;1.70;;;;;;;;;;4957182;28;21959;-60
2021/06/07 06:36:38;;;;;;;2.78;1.58;;;;;;;;;;4932909;28;20045;-59
2021/06/07 06:39:09;;;;;;;5.55;1.52;;;;;;;;;;4973296;28;20031;-59
2021/06/07 06:41:35;;;;;;;2.40;1.20;;;;;;;;;;4955768;28;20026;-60
2021/06/07 06:44:02;;;;;;;2.72;1.40;;;;;;;;;;4953002;28;20631;-60
2021/06/07 06:46:28;;;;;;;1.73;1.40;;;;;;;;;;4973453;28;20038;-60
2021/06/07 06:48:53;;;;;;;1.90;1.38;;;;;;;;;;4970659;28;20046;-60
2021/06/07 06:51:19;;;;;;;2.63;1.30;;;;;;;;;;4970918;28;20129;-58
2021/06/07 06:53:44;;;;;;;1.60;1.20;;;;;;;;;;4956213;28;20064;-60
2021/06/07 06:56:14;;;;;;;4.93;1.00;;;;;;;;;;4954190;28;20065;-60
2021/06/07 06:58:40;;;;;;;2.50;0.95;;;;;;;;;;4938116;28;20042;-60
2021/06/07 07:01:08;;;;;;;2.92;1.17;;;;;;;;;;4932814;28;20046;-61
2021/06/07 07:03:38;;;;;;;1.73;1.33;;;;;;;;;;4968167;28;20038;-60
2021/06/07 07:06:05;;;;;;;1.73;1.17;;;;;;;;;;4974186;28;20090;-60
2021/06/07 07:08:33;;;;;;;3.25;1.20;;;;;;;;;;4971836;28;20744;-61
2021/06/07 07:10:59;;;;;;;1.10;1.00;;;;;;;;;;4954097;28;20148;-60
2021/06/07 07:13:25;;;;;;;1.65;0.90;;;;;;;;;;4969747;28;20038;-62
2021/06/07 07:15:50;;;;;;;1.17;0.98;;;;;;;;;;4936415;28;20040;-61
2021/06/07 07:18:16;;;;;;;0.85;0.80;;;;;;;;;;4974854;28;20038;-61
2021/06/07 07:20:44;;;;;;;6.15;1.30;;;;;;;;;;4971130;28;20042;-61
2021/06/07 07:23:10;;;;;;;2.92;0.70;;;;;;;;;;4971491;28;20046;-62
2021/06/07 07:25:36;;;;;;;1.52;0.80;;;;;;;;;;4948884;28;20026;-61
2021/06/07 07:28:03;;;;;;;2.63;0.90;;;;;;;;;;4970554;28;20038;-62
2021/06/07 07:30:30;;;;;;;2.60;0.70;;;;;;;;;;4947253;28;20038;-61
2021/06/07 07:32:56;;;;;;;1.50;0.70;;;;;;;;;;4970631;28;20034;-61
2021/06/07 07:35:23;;;;;;;1.17;0.73;;;;;;;;;;4972550;28;20034;-61
2021/06/07 07:37:48;;;;;;;3.63;0.95;;;;;;;;;;4952372;28;20034;-60
2021/06/07 07:40:18;;;;;;;1.20;0.60;;;;;;;;;;4943709;28;20033;-61
2021/06/07 07:42:44;;;;;;;1.75;0.73;;;;;;;;;;4976231;28;20034;-61
2021/06/07 07:45:10;;;;;;;2.40;0.80;;;;;;;;;;4966169;28;20033;-60
2021/06/07 07:47:35;;;;;;;2.20;0.60;;;;;;;;;;4974846;28;20054;-61
2021/06/07 07:50:02;;;;;;;1.70;1.00;;;;;;;;;;4979432;28;20092;-60
2021/06/07 07:52:30;;;;;;;1.73;1.30;;;;;;;;;;4973869;28;20065;-61
2021/06/07 07:54:58;;;;;;;0.50;0.50;;;;;;;;;;4975048;28;20038;-62
2021/06/07 07:57:26;;;;;;;1.17;0.65;;;;;;;;;;4976793;28;20109;-61
2021/06/07 07:59:56;;;;;;;2.63;0.70;;;;;;;;;;4956245;28;20141;-62
2021/06/07 08:02:22;;;;;;;1.75;0.98;;;;;;;;;;4950921;28;20088;-60
2021/06/07 08:04:50;;;;;;;1.13;1.00;;;;;;;;;;4973734;28;22007;-61
2021/06/07 08:07:17;;;;;;;1.00;0.80;;;;;;;;;;4952246;28;20801;-61
2021/06/07 08:09:45;;;;;;;1.75;0.60;;;;;;;;;;4961707;28;20034;-61
2021/06/07 08:12:11;;;;;;;1.83;0.70;;;;;;;;;;4974315;28;20068;-61
2021/06/07 08:14:36;;;;;;;0.90;0.52;;;;;;;;;;4953175;28;21083;-61
2021/06/07 08:17:06;;;;;;;2.25;0.70;;;;;;;;;;4952276;28;20122;-63
2021/06/07 08:19:32;;;;;;;2.35;0.70;;;;;;;;;;4954149;28;20042;-62
2021/06/07 08:21:57;;;;;;;1.25;0.70;;;;;;;;;;4959754;28;20120;-62
2021/06/07 08:24:23;;;;;;;1.48;0.93;;;;;;;;;;4976914;28;20036;-63
2021/06/07 08:26:51;;;;;;;0.60;0.60;;;;;;;;;;4973803;28;20153;-60
2021/06/07 08:29:17;;;;;;;1.23;0.70;;;;;;;;;;4975315;28;20483;-62
2021/06/07 08:31:47;;;;;;;3.35;0.85;;;;;;;;;;4974515;28;20034;-61
2021/06/07 08:34:15;;;;;;;3.25;0.75;;;;;;;;;;4973229;28;20027;-61
2021/06/07 08:36:41;;;;;;;1.05;0.88;;;;;;;;;;4968732;28;20030;-60
2021/06/07 08:39:10;;;;;;;2.03;0.90;;;;;;;;;;4955436;28;20129;-61
2021/06/07 08:41:38;;;;;;;0.60;0.60;;;;;;;;;;4975362;28;20044;-62
2021/06/07 08:44:04;;;;;;;0.55;0.47;;;;;;;;;;4972290;28;20066;-62
2021/06/07 08:46:30;;;;;;;2.28;0.75;;;;;;;;;;4948283;28;19917;-61
2021/06/07 08:48:56;;;;;;;2.30;0.80;;;;;;;;;;4973611;28;20741;-62
2021/06/07 08:51:22;;;;;;;1.73;0.77;;;;;;;;;;4955893;28;20142;-61
2021/06/07 08:53:48;;;;;;;3.03;0.77;;;;;;;;;;4942049;28;20061;-60
2021/06/07 08:56:15;;;;;;;1.70;0.95;;;;;;;;;;4956132;28;20049;-62
2021/06/07 08:58:42;;;;;;;0.70;0.60;;;;;;;;;;4973157;28;20058;-62
2021/06/07 09:01:09;;;;;;;1.67;0.77;;;;;;;;;;4974400;28;20165;-61
2021/06/07 09:03:34;;;;;;;2.15;0.82;;;;;;;;;;4972597;28;20037;-61
2021/06/07 09:06:07;;;;;;;0.88;0.73;;;;;;;;;;4954230;28;22176;-61
2021/06/07 09:08:35;;;;;;;2.78;0.60;;;;;;;;;;4972978;28;20041;-61
2021/06/07 09:11:18;;;;;;;0.77;0.57;;;;;;;;;;4956004;28;20555;-61
2021/06/07 09:13:44;;;;;;;0.85;0.60;;;;;;;;;;4974926;28;20038;-62
2021/06/07 09:16:12;;;;;;;0.93;0.50;;;;;;;;;;4975795;28;20382;-62
2021/06/07 09:18:48;;;;;;;1.33;0.90;;;;;;;;;;4973603;28;20034;-62
2021/06/07 09:21:16;;;;;;;0.70;0.70;;;;;;;;;;4974906;28;20030;-62
2021/06/07 09:23:52;;;;;;;3.45;0.93;;;;;;;;;;4942467;28;22017;-62
2021/06/07 09:26:23;;;;;;;1.20;0.50;;;;;;;;;;4973727;28;21960;-63
2021/06/07 09:28:49;;;;;;;1.88;0.75;;;;;;;;;;4953677;28;20037;-62
2021/06/07 09:31:15;;;;;;;2.25;0.52;;;;;;;;;;4968371;28;20034;-61
2021/06/07 09:33:50;;;;;;;1.80;0.70;;;;;;;;;;4975386;28;20033;-62
2021/06/07 09:36:21;;;;;;;1.77;0.50;;;;;;;;;;4954698;28;20156;-64
2021/06/07 09:38:55;;;;;;;2.80;1.25;;;;;;;;;;4954543;28;20034;-62
2021/06/07 09:41:24;;;;;;;1.38;0.93;;;;;;;;;;4939531;28;20413;-62
2021/06/07 09:43:57;;;;;;;2.58;1.10;;;;;;;;;;4952264;28;20022;-61
2021/06/07 09:46:25;;;;;;;2.20;1.20;;;;;;;;;;4965995;28;20913;-61
2021/06/07 09:49:03;;;;;;;3.10;1.30;;;;;;;;;;4970807;28;20049;-61
2021/06/07 09:51:31;;;;;;;1.20;1.10;;;;;;;;;;4974937;28;20126;-62
2021/06/07 09:53:58;;;;;;;1.55;1.15;;;;;;;;;;4955673;28;20048;-60
2021/06/07 09:56:25;;;;;;;3.67;0.85;;;;;;;;;;4949257;28;20520;-62
2021/06/07 09:58:51;;;;;;;1.35;1.20;;;;;;;;;;4972255;28;20674;-61
2021/06/07 10:01:22;;;;;;;1.70;0.80;;;;;;;;;;4972408;28;20061;-62
2021/06/07 10:03:54;;;;;;;2.00;1.05;;;;;;;;;;4946427;28;21031;-61
2021/06/07 10:06:22;;;;;;;1.45;1.00;;;;;;;;;;4953421;28;20049;-62
2021/06/07 10:08:59;;;;;;;1.75;0.82;;;;;;;;;;4966949;28;20153;-61
2021/06/07 10:11:36;;;;;;;1.40;0.95;;;;;;;;;;4965815;28;20041;-62
2021/06/07 10:14:22;;;;;;;1.38;1.05;;;;;;;;;;4969592;28;20034;-61
2021/06/07 10:16:57;;;;;;;4.20;1.50;;;;;;;;;;4966323;28;20204;-62
2021/06/07 10:19:45;;;;;;;1.95;1.10;;;;;;;;;;4939436;28;20034;-62
2021/06/07 10:22:14;;;;;;;1.25;0.90;;;;;;;;;;4975014;28;20045;-62
2021/06/07 10:24:40;;;;;;;1.33;1.23;;;;;;;;;;4965642;28;20030;-60
2021/06/07 10:27:08;;;;;;;2.92;1.30;;;;;;;;;;4972986;28;20181;-61
2021/06/07 10:29:38;;;;;;;1.15;0.95;;;;;;;;;;4972794;28;20033;-61
2021/06/07 10:32:09;;;;;;;2.10;0.90;;;;;;;;;;4969714;28;20045;-61
2021/06/07 10:34:50;;;;;;;1.48;1.25;;;;;;;;;;4968016;28;20025;-60
2021/06/07 10:37:21;;;;;;;3.42;1.20;;;;;;;;;;4970654;28;20031;-61
2021/06/07 10:39:47;;;;;;;1.75;1.00;;;;;;;;;;4973538;28;20713;-61
2021/06/07 10:42:17;;;;;;;2.42;0.95;;;;;;;;;;4968351;28;20152;-60
2021/06/07 10:44:44;;;;;;;2.78;1.50;;;;;;;;;;4972085;28;20042;-61
2021/06/07 10:47:10;;;;;;;1.00;1.00;;;;;;;;;;4946349;28;20463;-61
2021/06/07 10:49:36;;;;;;;4.28;1.50;;;;;;;;;;4954033;28;20030;-61
2021/06/07 10:52:04;;;;;;;0.70;0.70;;;;;;;;;;4949445;28;20045;-60
2021/06/07 10:54:33;;;;;;;1.85;0.90;;;;;;;;;;4932401;28;20294;-60
2021/06/07 10:57:17;;;;;;;1.55;0.90;;;;;;;;;;4969252;28;20038;-61
2021/06/07 10:59:49;;;;;;;1.05;0.85;;;;;;;;;;4948550;28;20137;-60
2021/06/07 11:02:19;;;;;;;2.55;1.05;;;;;;;;;;4937895;28;20025;-59
2021/06/07 11:04:45;;;;;;;1.13;0.63;;;;;;;;;;4967047;28;20850;-60
2021/06/07 11:07:17;;;;;;;1.55;0.63;;;;;;;;;;4954273;28;20125;-60
2021/06/07 11:10:02;;;;;;;0.80;0.40;;;;;;;;;;4970045;28;20050;-61
2021/06/07 11:12:31;;;;;;;1.73;0.70;;;;;;;;;;4937979;28;20030;-59
2021/06/07 11:15:11;;;;;;;1.27;0.60;;;;;;;;;;4974669;28;20041;-59
2021/06/07 11:17:36;;;;;;;1.42;0.70;;;;;;;;;;4976032;28;20954;-59
2021/06/07 11:20:02;;;;;;;3.83;0.65;;;;;;;;;;4978511;28;20038;-60
2021/06/07 11:22:52;;;;;;;0.90;0.52;;;;;;;;;;4977617;28;20034;-60
2021/06/07 11:25:23;;;;;;;1.33;0.57;;;;;;;;;;4955395;28;20030;-60
2021/06/07 11:27:53;;;;;;;0.90;0.47;;;;;;;;;;4956650;28;20035;-60
2021/06/07 11:30:20;;;;;;;1.10;0.68;;;;;;;;;;4977030;28;20042;-61
2021/06/07 11:32:46;;;;;;;1.17;0.63;;;;;;;;;;4973954;28;20466;-60
2021/06/07 11:35:30;;;;;;;1.58;0.30;;;;;;;;;;4938847;28;20085;-60
2021/06/07 11:38:18;;;;;;;2.20;0.50;;;;;;;;;;4977444;28;20038;-60
2021/06/07 11:40:48;;;;;;;2.28;0.60;;;;;;;;;;4955875;28;20041;-61
2021/06/07 11:43:14;;;;;;;6.72;0.60;;;;;;;;;;4970979;28;20034;-61
2021/06/07 11:45:40;;;;;;;0.90;0.55;;;;;;;;;;4955692;28;20461;-60
2021/06/07 11:48:06;;;;;;;2.78;0.60;;;;;;;;;;4973139;28;20104;-60
2021/06/07 11:50:40;;;;;;;1.27;0.45;;;;;;;;;;4975511;28;21895;-60
2021/06/07 11:53:17;;;;;;;1.00;0.57;;;;;;;;;;4976753;28;20117;-60
2021/06/07 11:55:43;;;;;;;3.17;0.57;;;;;;;;;;4974095;28;20038;-60
2021/06/07 11:58:11;;;;;;;2.53;0.90;;;;;;;;;;4974690;28;20117;-59
2021/06/07 12:00:43;;;;;;;3.13;0.82;;;;;;;;;;4975269;28;20523;-61
2021/06/07 12:03:12;;;;;;;1.85;0.68;;;;;;;;;;4959614;28;20069;-61
2021/06/07 12:05:40;;;;;;;0.90;0.60;;;;;;;;;;4955470;28;20034;-61
2021/06/07 12:08:07;;;;;;;1.67;0.70;;;;;;;;;;4973833;28;20489;-60
2021/06/07 12:10:32;;;;;;;1.83;0.60;;;;;;;;;;4975910;28;20130;-59
2021/06/07 12:13:17;;;;;;;1.20;0.50;;;;;;;;;;4975015;28;20557;-60
2021/06/07 12:15:49;;;;;;;1.20;0.70;;;;;;;;;;4951218;28;20041;-61
2021/06/07 12:18:26;;;;;;;2.83;1.25;;;;;;;;;;4975209;28;20069;-60
2021/06/07 12:20:52;;;;;;;1.55;0.63;;;;;;;;;;4975470;28;20078;-61
2021/06/07 12:23:26;;;;;;;2.63;0.60;;;;;;;;;;4972248;28;20065;-61
2021/06/07 12:28:38;;;;;;;1.25;0.80;;;;;;;;;;4975439;28;20049;-62
2021/06/07 12:31:10;;;;;;;1.05;0.38;;;;;;;;;;4974831;28;20586;-60
2021/06/07 12:33:36;;;;;;;2.00;0.80;;;;;;;;;;4972597;28;20046;-60
2021/06/07 12:36:05;;;;;;;0.80;0.73;;;;;;;;;;4976033;28;22197;-61
2021/06/07 12:38:33;;;;;;;2.80;1.00;;;;;;;;;;4973232;28;20563;-61
2021/06/07 12:40:59;;;;;;;0.85;0.60;;;;;;;;;;4951327;28;20124;-61
2021/06/07 12:43:26;;;;;;;0.50;0.50;;;;;;;;;;4951069;28;20034;-61
2021/06/07 12:46:00;;;;;;;3.10;0.95;;;;;;;;;;4974885;28;20026;-62
2021/06/07 12:48:30;;;;;;;1.92;0.95;;;;;;;;;;4974628;28;20153;-60
2021/06/07 12:51:00;;;;;;;2.42;0.90;;;;;;;;;;4957896;28;20066;-60
2021/06/07 12:53:27;;;;;;;1.13;0.70;;;;;;;;;;4975940;28;20040;-60
2021/06/07 12:55:56;;;;;;;0.73;0.68;;;;;;;;;;4954891;28;20030;-60
2021/06/07 12:58:27;;;;;;;1.83;0.68;;;;;;;;;;4957404;28;20029;-60
2021/06/07 13:01:02;;;;;;;1.70;0.60;;;;;;;;;;4973861;28;20181;-59
2021/06/07 13:03:29;;;;;;;1.05;0.80;;;;;;;;;;4975988;28;20152;-60
2021/06/07 13:06:00;;;;;;;1.13;0.60;;;;;;;;;;4975755;28;20072;-60
2021/06/07 13:08:29;;;;;;;0.80;0.70;;;;;;;;;;4974793;28;20029;-60
2021/06/07 13:10:56;;;;;;;0.63;0.60;;;;;;;;;;4958239;28;20116;-60
2021/06/07 13:13:24;;;;;;;1.77;0.80;;;;;;;;;;4968527;28;20133;-60
2021/06/07 13:15:55;;;;;;;2.90;0.70;;;;;;;;;;4972470;28;20025;-61
2021/06/07 13:18:25;;;;;;;2.40;0.60;;;;;;;;;;4957972;28;20041;-61
2021/06/07 13:21:08;;;;;;;0.75;0.40;;;;;;;;;;4974422;28;21222;-60
2021/06/07 13:23:45;;;;;;;1.40;0.68;;;;;;;;;;4967846;28;20042;-61
2021/06/07 13:26:22;;;;;;;0.93;0.50;;;;;;;;;;4949334;28;20040;-60
2021/06/07 13:28:48;;;;;;;0.60;0.40;;;;;;;;;;4966257;28;20424;-59
2021/06/07 13:31:14;;;;;;;0.50;0.45;;;;;;;;;;4949373;28;20031;-60
2021/06/07 13:33:42;;;;;;;0.30;0.30;;;;;;;;;;4951817;28;20042;-60
2021/06/07 13:36:09;;;;;;;3.35;0.90;;;;;;;;;;4955419;28;20034;-59
2021/06/07 13:38:40;;;;;;;1.48;0.73;;;;;;;;;;4939051;28;20034;-60
2021/06/07 13:41:07;;;;;;;1.00;0.60;;;;;;;;;;4970271;28;20462;-60
2021/06/07 13:43:40;;;;;;;1.00;0.90;;;;;;;;;;4971336;28;20065;-60
2021/06/07 13:46:05;;;;;;;0.63;0.63;;;;;;;;;;4969791;28;20069;-60
2021/06/07 13:48:35;;;;;;;1.65;0.75;;;;;;;;;;4972431;28;20114;-60
2021/06/07 13:51:04;;;;;;;1.90;0.82;;;;;;;;;;4972944;28;20511;-61
2021/06/07 13:53:32;;;;;;;0.80;0.70;;;;;;;;;;4971331;28;20034;-61
2021/06/07 13:56:01;;;;;;;3.58;0.80;;;;;;;;;;4974251;28;20118;-60
2021/06/07 13:58:36;;;;;;;1.75;0.80;;;;;;;;;;4971064;28;20751;-60
2021/06/07 14:01:02;;;;;;;0.77;0.75;;;;;;;;;;4954399;28;20742;-60
2021/06/07 14:03:29;;;;;;;1.52;0.88;;;;;;;;;;4953852;28;20113;-60
2021/06/07 14:05:56;;;;;;;1.13;0.93;;;;;;;;;;4972295;28;20116;-59
2021/06/07 14:08:22;;;;;;;2.67;0.82;;;;;;;;;;4972363;28;20046;-59
2021/06/07 14:10:49;;;;;;;1.63;0.90;;;;;;;;;;4956148;28;20543;-59
2021/06/07 14:13:18;;;;;;;2.30;0.80;;;;;;;;;;4971766;28;20034;-60
2021/06/07 14:15:43;;;;;;;1.33;1.00;;;;;;;;;;4970672;28;20026;-60
2021/06/07 14:18:09;;;;;;;2.92;1.17;;;;;;;;;;4939289;28;20045;-59
2021/06/07 14:20:39;;;;;;;0.82;0.50;;;;;;;;;;4972048;28;20616;-61
2021/06/07 14:25:52;;;;;;;0.95;0.77;;;;;;;;;;4972530;28;20026;-60
2021/06/07 14:28:19;;;;;;;0.65;0.65;;;;;;;;;;4950116;28;20029;-62
2021/06/07 14:30:45;;;;;;;1.50;0.50;;;;;;;;;;4953634;28;22018;-60
2021/06/07 14:33:12;;;;;;;2.53;0.65;;;;;;;;;;4970471;28;21517;-61
2021/06/07 14:35:40;;;;;;;1.55;0.60;;;;;;;;;;4952191;28;20034;-59
2021/06/07 14:38:07;;;;;;;1.50;0.68;;;;;;;;;;4951104;28;20658;-60
2021/06/07 14:40:36;;;;;;;0.80;0.43;;;;;;;;;;4971000;28;20586;-59
2021/06/07 14:43:03;;;;;;;1.75;0.80;;;;;;;;;;4954759;28;20085;-60
2021/06/07 14:45:29;;;;;;;0.63;0.40;;;;;;;;;;4972952;28;20026;-60
2021/06/07 14:47:55;;;;;;;2.15;0.65;;;;;;;;;;4970544;28;20045;-58
2021/06/07 14:50:21;;;;;;;1.02;0.80;;;;;;;;;;4954383;28;20041;-59
2021/06/07 14:52:51;;;;;;;1.55;0.55;;;;;;;;;;4935978;28;20046;-59